createdAt,value
2018-05-12T00:00:29.113Z,68.36
2018-05-12T00:01:29.098Z,68.74
2018-05-12T00:02:29.075Z,68.46
2018-05-12T00:03:29.123Z,68.27
2018-05-12T00:04:29.042Z,68.55
2018-05-12T00:05:29.042Z,69.00
2018-05-12T00:06:29.010Z,69.13
2018-05-12T00:07:28.997Z,69.51
2018-05-12T00:08:28.984Z,69.57
2018-05-12T00:09:28.999Z,69.76
2018-05-12T00:10:28.938Z,70.15
2018-05-12T00:11:28.943Z,70.05
2018-05-12T00:12:28.932Z,70.34
2018-05-12T00:13:28.893Z,70.34
2018-05-12T00:14:28.890Z,70.43
2018-05-12T00:15:28.866Z,70.15
2018-05-12T00:16:28.847Z,70.24
2018-05-12T00:17:28.828Z,70.34
2018-05-12T00:18:28.804Z,70.53
2018-05-12T00:19:28.840Z,70.72
2018-05-12T00:20:28.845Z,70.53
2018-05-12T00:21:28.757Z,70.53
2018-05-12T00:22:28.735Z,70.72
2018-05-12T00:23:28.725Z,70.62
2018-05-12T00:24:28.710Z,70.34
2018-05-12T00:25:28.725Z,70.53
2018-05-12T00:26:28.671Z,70.43
2018-05-12T00:27:28.662Z,70.53
2018-05-12T00:28:30.432Z,70.24
2018-05-12T00:29:28.625Z,70.62
2018-05-12T00:30:28.615Z,70.24
2018-05-12T00:31:28.581Z,70.24
2018-05-12T00:32:28.565Z,70.24
2018-05-12T00:33:28.558Z,70.24
2018-05-12T00:34:28.562Z,70.24
2018-05-12T00:35:28.545Z,70.34
2018-05-12T00:36:28.498Z,70.05
2018-05-12T00:37:28.479Z,70.43
2018-05-12T00:38:28.473Z,69.76
2018-05-12T00:39:28.470Z,69.86
2018-05-12T00:40:28.435Z,69.38
2018-05-12T00:41:28.443Z,70.05
2018-05-12T00:42:28.406Z,69.48
2018-05-12T00:43:28.390Z,69.95
2018-05-12T00:44:28.375Z,69.86
2018-05-12T00:45:28.371Z,69.29
2018-05-12T00:46:28.332Z,69.29
2018-05-12T00:47:28.331Z,69.38
2018-05-12T00:48:28.310Z,69.57
2018-05-12T00:49:28.311Z,69.38
2018-05-12T00:50:28.257Z,69.60
2018-05-12T00:51:28.262Z,69.19
2018-05-12T00:52:28.243Z,69.70
2018-05-12T00:53:28.213Z,69.38
2018-05-12T00:54:28.208Z,68.94
2018-05-12T00:55:28.179Z,69.13
2018-05-12T00:56:28.169Z,68.94
2018-05-12T00:57:28.141Z,68.36
2018-05-12T00:58:28.125Z,68.27
2018-05-12T00:59:28.111Z,68.17
2018-05-12T01:00:28.105Z,68.74
2018-05-12T01:01:28.080Z,67.98
2018-05-12T01:02:28.076Z,68.07
2018-05-12T01:03:28.069Z,67.79
2018-05-12T01:04:28.052Z,68.46
2018-05-12T01:05:28.006Z,68.74
2018-05-12T01:06:27.994Z,67.79
2018-05-12T01:07:27.975Z,67.79
2018-05-12T01:08:27.966Z,68.46
2018-05-12T01:09:27.942Z,67.79
2018-05-12T01:10:27.948Z,68.07
2018-05-12T01:11:27.915Z,67.79
2018-05-12T01:12:27.899Z,67.98
2018-05-12T01:13:27.879Z,67.50
2018-05-12T01:14:27.883Z,67.60
2018-05-12T01:15:27.844Z,67.88
2018-05-12T01:16:27.820Z,67.98
2018-05-12T01:17:27.807Z,68.17
2018-05-12T01:18:27.783Z,67.50
2018-05-12T01:19:27.790Z,67.88
2018-05-12T01:20:27.752Z,67.88
2018-05-12T01:21:27.737Z,67.11
2018-05-12T01:22:27.721Z,67.11
2018-05-12T01:23:27.719Z,67.02
2018-05-12T01:24:27.701Z,67.60
2018-05-12T01:25:27.669Z,67.60
2018-05-12T01:26:27.685Z,67.11
2018-05-12T01:27:27.650Z,67.50
2018-05-12T01:28:27.646Z,67.02
2018-05-12T01:29:27.601Z,67.11
2018-05-12T01:30:27.609Z,67.21
2018-05-12T01:31:27.580Z,67.50
2018-05-12T01:32:27.553Z,67.50
2018-05-12T01:33:27.541Z,67.88
2018-05-12T01:34:27.514Z,67.98
2018-05-12T01:35:27.505Z,67.79
2018-05-12T01:36:27.505Z,67.79
2018-05-12T01:37:27.466Z,67.79
2018-05-12T01:38:27.455Z,67.88
2018-05-12T01:39:27.432Z,67.98
2018-05-12T01:40:27.440Z,67.98
2018-05-12T01:41:27.445Z,68.65
2018-05-12T01:42:27.394Z,67.98
2018-05-12T01:43:27.380Z,68.71
2018-05-12T01:44:27.344Z,68.46
2018-05-12T01:45:27.360Z,68.46
2018-05-12T01:46:27.347Z,68.71
2018-05-12T01:47:27.308Z,69.00
2018-05-12T01:48:27.279Z,69.19
2018-05-12T01:49:27.273Z,68.42
2018-05-12T01:50:27.261Z,68.52
2018-05-12T01:51:27.225Z,69.09
2018-05-12T01:52:27.225Z,69.00
2018-05-12T01:53:27.194Z,69.09
2018-05-12T01:54:27.184Z,69.38
2018-05-12T01:55:27.158Z,69.38
2018-05-12T01:56:27.144Z,69.57
2018-05-12T01:57:27.124Z,69.38
2018-05-12T01:58:27.105Z,69.19
2018-05-12T01:59:27.088Z,70.05
2018-05-12T02:00:27.075Z,69.38
2018-05-12T02:01:27.084Z,69.95
2018-05-12T02:02:27.064Z,70.05
2018-05-12T02:03:27.029Z,69.76
2018-05-12T02:04:27.010Z,69.95
2018-05-12T02:05:26.992Z,70.15
2018-05-12T02:06:26.975Z,70.15
2018-05-12T02:07:26.974Z,70.43
2018-05-12T02:08:26.947Z,70.11
2018-05-12T02:09:26.960Z,70.59
2018-05-12T02:10:26.917Z,70.50
2018-05-12T02:11:26.909Z,70.59
2018-05-12T02:12:26.894Z,70.87
2018-05-12T02:13:26.887Z,70.78
2018-05-12T02:14:26.843Z,70.78
2018-05-12T02:15:26.956Z,71.26
2018-05-12T02:16:26.842Z,70.87
2018-05-12T02:17:26.790Z,70.97
2018-05-12T02:18:26.817Z,70.97
2018-05-12T02:19:26.797Z,70.97
2018-05-12T02:20:26.733Z,70.78
2018-05-12T02:21:26.715Z,71.45
2018-05-12T02:22:26.697Z,71.64
2018-05-12T02:23:26.733Z,71.26
2018-05-12T02:24:26.677Z,71.16
2018-05-12T02:25:26.659Z,71.73
2018-05-12T02:26:26.625Z,71.73
2018-05-12T02:27:26.619Z,72.50
2018-05-12T02:28:26.657Z,71.73
2018-05-12T02:29:26.576Z,72.12
2018-05-12T02:30:26.680Z,72.60
2018-05-12T02:31:26.560Z,72.41
2018-05-12T02:32:26.527Z,72.31
2018-05-12T02:33:26.510Z,72.41
2018-05-12T02:34:26.483Z,72.60
2018-05-12T02:35:26.466Z,72.56
2018-05-12T02:36:26.455Z,72.94
2018-05-12T02:37:26.447Z,73.08
2018-05-12T02:38:26.479Z,73.33
2018-05-12T02:39:26.429Z,73.33
2018-05-12T02:40:26.419Z,72.94
2018-05-12T02:41:26.372Z,73.33
2018-05-12T02:42:26.389Z,73.14
2018-05-12T02:43:26.343Z,72.94
2018-05-12T02:44:26.335Z,73.43
2018-05-12T02:45:26.397Z,73.33
2018-05-12T02:46:26.277Z,73.90
2018-05-12T02:47:26.325Z,73.99
2018-05-12T02:48:26.257Z,73.99
2018-05-12T02:49:26.235Z,73.80
2018-05-12T02:50:26.205Z,73.71
2018-05-12T02:51:26.188Z,73.99
2018-05-12T02:52:26.185Z,73.90
2018-05-12T02:53:26.154Z,73.90
2018-05-12T02:54:26.136Z,74.09
2018-05-12T02:55:26.118Z,74.28
2018-05-12T02:56:26.100Z,74.28
2018-05-12T02:57:26.083Z,74.28
2018-05-12T02:58:26.061Z,74.19
2018-05-12T02:59:26.047Z,74.09
2018-05-12T03:00:26.037Z,74.38
2018-05-12T03:01:26.019Z,74.38
2018-05-12T03:02:26.028Z,74.66
2018-05-12T03:03:25.979Z,75.05
2018-05-12T03:04:25.989Z,75.14
2018-05-12T03:05:25.949Z,75.34
2018-05-12T03:06:25.972Z,74.95
2018-05-12T03:07:25.912Z,75.43
2018-05-12T03:08:25.899Z,75.43
2018-05-12T03:09:25.884Z,75.43
2018-05-12T03:10:25.872Z,75.68
2018-05-12T03:11:25.891Z,75.78
2018-05-12T03:12:25.832Z,76.16
2018-05-12T03:13:25.836Z,75.68
2018-05-12T03:14:25.790Z,76.54
2018-05-12T03:15:25.763Z,76.54
2018-05-12T03:16:25.744Z,77.21
2018-05-12T03:17:25.771Z,76.64
2018-05-12T03:18:25.717Z,76.64
2018-05-12T03:19:25.688Z,76.82
2018-05-12T03:20:25.697Z,77.21
2018-05-12T03:21:25.692Z,77.21
2018-05-12T03:22:25.637Z,77.59
2018-05-12T03:23:25.646Z,77.78
2018-05-12T03:24:25.602Z,77.59
2018-05-12T03:25:25.580Z,78.16
2018-05-12T03:26:25.564Z,77.97
2018-05-12T03:27:25.550Z,77.87
2018-05-12T03:28:25.554Z,77.65
2018-05-12T03:29:25.541Z,78.31
2018-05-12T03:30:25.512Z,78.22
2018-05-12T03:31:25.483Z,78.22
2018-05-12T03:32:25.459Z,78.22
2018-05-12T03:33:25.442Z,78.60
2018-05-12T03:34:25.452Z,78.31
2018-05-12T03:35:25.400Z,78.41
2018-05-12T03:36:25.384Z,79.08
2018-05-12T03:37:25.370Z,79.56
2018-05-12T03:38:25.349Z,79.46
2018-05-12T03:39:25.331Z,79.56
2018-05-12T03:40:25.333Z,79.36
2018-05-12T03:41:25.339Z,79.75
2018-05-12T03:42:25.300Z,79.46
2018-05-12T03:43:25.264Z,79.46
2018-05-12T03:44:25.277Z,79.85
2018-05-12T03:45:25.281Z,80.04
2018-05-12T03:46:25.211Z,80.22
2018-05-12T03:47:25.189Z,80.32
2018-05-12T03:48:25.183Z,80.32
2018-05-12T03:49:25.168Z,80.13
2018-05-12T03:50:25.148Z,80.41
2018-05-12T03:51:25.114Z,80.32
2018-05-12T03:52:25.140Z,80.13
2018-05-12T03:53:25.085Z,80.22
2018-05-12T03:54:25.064Z,80.32
2018-05-12T03:55:25.039Z,80.41
2018-05-12T03:56:25.049Z,79.75
2018-05-12T03:57:25.007Z,80.41
2018-05-12T03:58:24.999Z,80.13
2018-05-12T03:59:24.988Z,79.94
2018-05-12T04:00:24.959Z,80.22
2018-05-12T04:01:24.953Z,80.41
2018-05-12T04:02:24.934Z,80.51
2018-05-12T04:03:24.998Z,80.61
2018-05-12T04:04:24.926Z,81.09
2018-05-12T04:05:24.877Z,81.09
2018-05-12T04:06:24.845Z,81.18
2018-05-12T04:07:24.825Z,81.09
2018-05-12T04:08:24.811Z,81.47
2018-05-12T04:09:24.784Z,81.76
2018-05-12T04:10:24.769Z,81.85
2018-05-12T04:11:24.770Z,81.62
2018-05-12T04:12:24.737Z,82.19
2018-05-12T04:13:24.728Z,81.85
2018-05-12T04:14:24.693Z,81.47
2018-05-12T04:15:24.681Z,81.56
2018-05-12T04:16:24.664Z,81.56
2018-05-12T04:17:24.649Z,81.33
2018-05-12T04:18:24.624Z,81.85
2018-05-12T04:19:24.613Z,82.14
2018-05-12T04:20:24.609Z,82.00
2018-05-12T04:21:24.568Z,82.42
2018-05-12T04:22:24.543Z,82.14
2018-05-12T04:23:24.529Z,82.81
2018-05-12T04:24:24.526Z,82.32
2018-05-12T04:25:24.500Z,82.42
2018-05-12T04:26:24.470Z,83.00
2018-05-12T04:27:24.461Z,83.38
2018-05-12T04:28:24.448Z,83.18
2018-05-12T04:29:24.418Z,83.38
2018-05-12T04:30:24.408Z,83.57
2018-05-12T04:31:24.396Z,83.67
2018-05-12T04:32:24.364Z,83.28
2018-05-12T04:33:24.388Z,83.38
2018-05-12T04:34:24.357Z,83.95
2018-05-12T04:35:24.314Z,83.67
2018-05-12T04:36:24.300Z,82.94
2018-05-12T04:37:24.285Z,83.04
2018-05-12T04:38:24.257Z,82.56
2018-05-12T04:39:24.249Z,82.56
2018-05-12T04:40:24.263Z,81.99
2018-05-12T04:41:24.220Z,81.79
2018-05-12T04:42:24.287Z,81.32
2018-05-12T04:43:24.253Z,81.51
2018-05-12T04:44:24.166Z,80.65
2018-05-12T04:45:24.157Z,80.98
2018-05-12T04:46:24.152Z,80.79
2018-05-12T04:47:24.099Z,80.88
2018-05-12T04:48:24.094Z,80.59
2018-05-12T04:49:24.069Z,80.30
2018-05-12T04:50:24.041Z,79.83
2018-05-12T04:51:24.040Z,80.21
2018-05-12T04:52:24.030Z,79.93
2018-05-12T04:53:23.993Z,79.77
2018-05-12T04:54:24.055Z,79.77
2018-05-12T04:55:23.948Z,80.35
2018-05-12T04:56:23.962Z,79.49
2018-05-12T04:57:23.930Z,79.77
2018-05-12T04:58:23.912Z,79.58
2018-05-12T04:59:23.896Z,79.49
2018-05-12T05:00:23.922Z,79.58
2018-05-12T05:01:23.876Z,79.87
2018-05-12T05:02:23.829Z,80.06
2018-05-12T05:03:23.807Z,80.44
2018-05-12T05:04:23.793Z,80.35
2018-05-12T05:05:23.772Z,80.35
2018-05-12T05:06:23.761Z,80.25
2018-05-12T05:07:23.749Z,79.20
2018-05-12T05:08:23.751Z,79.49
2018-05-12T05:09:23.719Z,79.49
2018-05-12T05:10:23.720Z,79.68
2018-05-12T05:11:23.682Z,80.25
2018-05-12T05:12:23.657Z,79.68
2018-05-12T05:13:23.639Z,80.06
2018-05-12T05:14:23.625Z,79.68
2018-05-12T05:15:23.694Z,79.29
2018-05-12T05:16:23.615Z,79.10
2018-05-12T05:17:23.571Z,79.20
2018-05-12T05:18:23.544Z,79.68
2018-05-12T05:19:23.533Z,78.53
2018-05-12T05:20:23.550Z,78.53
2018-05-12T05:21:23.498Z,78.57
2018-05-12T05:22:23.544Z,78.38
2018-05-12T05:23:23.479Z,78.57
2018-05-12T05:24:23.445Z,77.90
2018-05-12T05:25:23.430Z,78.47
2018-05-12T05:26:23.407Z,77.70
2018-05-12T05:27:23.390Z,77.80
2018-05-12T05:28:23.389Z,77.80
2018-05-12T05:29:23.359Z,78.38
2018-05-12T05:30:23.344Z,78.47
2018-05-12T05:31:23.328Z,77.84
2018-05-12T05:32:23.358Z,77.75
2018-05-12T05:33:23.297Z,78.22
2018-05-12T05:34:23.273Z,77.46
2018-05-12T05:35:23.263Z,77.55
2018-05-12T05:36:23.251Z,77.26
2018-05-12T05:37:23.228Z,76.69
2018-05-12T05:38:23.221Z,76.69
2018-05-12T05:39:23.185Z,77.26
2018-05-12T05:40:23.188Z,77.26
2018-05-12T05:41:23.174Z,76.82
2018-05-12T05:42:23.159Z,76.54
2018-05-12T05:43:23.119Z,76.54
2018-05-12T05:44:23.124Z,76.44
2018-05-12T05:45:23.085Z,75.87
2018-05-12T05:46:23.089Z,75.48
2018-05-12T05:47:23.076Z,75.48
2018-05-12T05:48:23.038Z,75.58
2018-05-12T05:49:23.028Z,75.43
2018-05-12T05:50:23.003Z,74.76
2018-05-12T05:51:22.988Z,74.85
2018-05-12T05:52:23.051Z,75.23
2018-05-12T05:53:23.035Z,75.33
2018-05-12T05:54:22.972Z,75.04
2018-05-12T05:55:22.957Z,73.90
2018-05-12T05:56:22.910Z,74.27
2018-05-12T05:57:22.920Z,74.31
2018-05-12T05:58:22.887Z,74.76
2018-05-12T05:59:22.864Z,74.51
2018-05-12T06:00:22.867Z,74.41
2018-05-12T06:01:22.853Z,73.83
2018-05-12T06:02:22.823Z,73.83
2018-05-12T06:03:22.808Z,73.93
2018-05-12T06:04:22.788Z,74.31
2018-05-12T06:05:22.810Z,74.41
2018-05-12T06:06:22.761Z,74.51
2018-05-12T06:07:22.747Z,74.12
2018-05-12T06:08:22.728Z,73.55
2018-05-12T06:09:22.712Z,73.80
2018-05-12T06:10:22.712Z,73.26
2018-05-12T06:11:22.690Z,73.22
2018-05-12T06:12:22.738Z,72.74
2018-05-12T06:13:22.688Z,73.03
2018-05-12T06:14:22.652Z,73.80
2018-05-12T06:15:22.656Z,74.37
2018-05-12T06:16:22.608Z,74.27
2018-05-12T06:17:22.607Z,74.37
2018-05-12T06:18:22.651Z,74.08
2018-05-12T06:19:22.608Z,74.47
2018-05-12T06:20:22.559Z,74.18
2018-05-12T06:21:22.538Z,75.33
2018-05-12T06:22:22.544Z,74.95
2018-05-12T06:23:22.532Z,74.76
2018-05-12T06:24:22.510Z,75.33
2018-05-12T06:25:22.482Z,75.33
2018-05-12T06:26:22.462Z,75.14
2018-05-12T06:27:22.537Z,75.27
2018-05-12T06:28:22.436Z,75.23
2018-05-12T06:29:22.448Z,75.56
2018-05-12T06:30:22.416Z,75.56
2018-05-12T06:31:22.407Z,76.71
2018-05-12T06:32:22.369Z,75.85
2018-05-12T06:33:22.357Z,75.56
2018-05-12T06:34:22.350Z,75.46
2018-05-12T06:35:22.355Z,74.60
2018-05-12T06:36:22.319Z,75.89
2018-05-12T06:37:22.306Z,75.50
2018-05-12T06:38:22.296Z,74.73
2018-05-12T06:39:22.276Z,73.87
2018-05-12T06:40:22.275Z,74.06
2018-05-12T06:41:22.267Z,74.29
2018-05-12T06:42:22.241Z,74.58
2018-05-12T06:43:22.222Z,74.19
2018-05-12T06:44:22.236Z,74.29
2018-05-12T06:45:22.206Z,72.02
2018-05-12T06:46:22.184Z,71.64
2018-05-12T06:47:22.193Z,70.78
2018-05-12T06:48:22.187Z,72.12
2018-05-12T06:49:22.180Z,71.67
2018-05-12T06:50:22.149Z,71.10
2018-05-12T06:51:22.156Z,70.23
2018-05-12T06:52:22.233Z,69.56
2018-05-12T06:53:22.132Z,69.37
2018-05-12T06:54:22.126Z,68.21
2018-05-12T06:55:22.094Z,68.89
2018-05-12T06:56:22.088Z,68.51
2018-05-12T06:57:22.085Z,68.31
2018-05-12T06:58:22.077Z,68.21
2018-05-12T06:59:22.056Z,68.21
2018-05-12T07:00:22.047Z,69.08
2018-05-12T07:01:22.085Z,68.60
2018-05-12T07:02:22.052Z,68.44
2018-05-12T07:03:22.014Z,67.68
2018-05-12T07:04:22.010Z,67.48
2018-05-12T07:05:22.017Z,67.00
2018-05-12T07:06:21.999Z,67.68
2018-05-12T07:07:21.982Z,67.19
2018-05-12T07:08:21.995Z,68.35
2018-05-12T07:09:21.978Z,67.42
2018-05-12T07:10:21.968Z,67.42
2018-05-12T07:11:21.948Z,66.94
2018-05-12T07:12:21.957Z,67.80
2018-05-12T07:13:21.947Z,67.13
2018-05-12T07:14:21.931Z,66.78
2018-05-12T07:15:21.913Z,68.32
2018-05-12T07:16:21.922Z,68.51
2018-05-12T07:17:21.915Z,67.65
2018-05-12T07:18:21.894Z,66.10
2018-05-12T07:19:21.959Z,65.53
2018-05-12T07:20:21.880Z,66.88
2018-05-12T07:21:21.861Z,65.08
2018-05-12T07:22:21.867Z,64.31
2018-05-12T07:23:21.855Z,65.46
2018-05-12T07:24:21.835Z,67.00
2018-05-12T07:25:21.825Z,65.94
2018-05-12T07:26:21.840Z,65.27
2018-05-12T07:27:21.820Z,65.56
2018-05-12T07:28:21.800Z,64.21
2018-05-12T07:29:21.792Z,63.95
2018-05-12T07:30:21.778Z,64.34
2018-05-12T07:31:21.802Z,63.67
2018-05-12T07:32:21.784Z,62.70
2018-05-12T07:33:21.808Z,62.90
2018-05-12T07:34:21.765Z,61.55
2018-05-12T07:35:21.747Z,62.32
2018-05-12T07:36:21.718Z,63.28
2018-05-12T07:37:21.725Z,62.41
2018-05-12T07:38:21.706Z,61.65
2018-05-12T07:39:21.687Z,62.70
2018-05-12T07:40:21.703Z,62.03
2018-05-12T07:41:21.663Z,61.35
2018-05-12T07:42:21.657Z,61.45
2018-05-12T07:43:21.644Z,61.35
2018-05-12T07:44:21.662Z,60.68
2018-05-12T07:45:21.654Z,61.74
2018-05-12T07:46:21.638Z,62.32
2018-05-12T07:47:21.613Z,60.77
2018-05-12T07:48:21.597Z,61.83
2018-05-12T07:49:21.588Z,61.96
2018-05-12T07:50:21.619Z,61.48
2018-05-12T07:51:21.579Z,61.00
2018-05-12T07:52:21.556Z,61.48
2018-05-12T07:53:21.539Z,60.80
2018-05-12T07:54:21.524Z,60.13
2018-05-12T07:55:21.523Z,60.80
2018-05-12T07:56:21.513Z,60.52
2018-05-12T07:57:21.496Z,59.94
2018-05-12T07:58:21.494Z,59.58
2018-05-12T07:59:21.481Z,60.26
2018-05-12T08:00:21.468Z,58.40
2018-05-12T08:01:21.460Z,58.97
2018-05-12T08:02:21.446Z,59.84
2018-05-12T08:03:21.498Z,60.03
2018-05-12T08:04:21.449Z,60.23
2018-05-12T08:05:21.431Z,61.19
2018-05-12T08:06:21.432Z,60.32
2018-05-12T08:07:21.429Z,60.42
2018-05-12T08:08:21.378Z,61.22
2018-05-12T08:09:21.420Z,61.90
2018-05-12T08:10:21.359Z,61.41
2018-05-12T08:11:21.343Z,60.45
2018-05-12T08:12:21.340Z,58.62
2018-05-12T08:13:21.320Z,59.80
2018-05-12T08:14:21.331Z,59.03
2018-05-12T08:15:21.310Z,58.94
2018-05-12T08:16:21.299Z,57.59
2018-05-12T08:17:21.305Z,57.68
2018-05-12T08:18:21.288Z,56.62
2018-05-12T08:19:21.271Z,55.08
2018-05-12T08:20:21.266Z,56.62
2018-05-12T08:21:21.250Z,57.01
2018-05-12T08:22:21.221Z,55.08
2018-05-12T08:23:21.215Z,55.46
2018-05-12T08:24:21.208Z,55.46
2018-05-12T08:25:21.206Z,56.52
2018-05-12T08:26:21.204Z,54.88
2018-05-12T08:27:21.205Z,54.40
2018-05-12T08:28:21.182Z,56.14
2018-05-12T08:29:21.183Z,56.72
2018-05-12T08:30:21.169Z,56.36
2018-05-12T08:31:21.146Z,54.05
2018-05-12T08:32:21.122Z,52.79
2018-05-12T08:33:21.112Z,52.79
2018-05-12T08:34:21.115Z,52.01
2018-05-12T08:35:21.090Z,53.27
2018-05-12T08:36:21.078Z,53.66
2018-05-12T08:37:21.117Z,53.17
2018-05-12T08:38:21.088Z,53.08
2018-05-12T08:39:21.047Z,54.33
2018-05-12T08:40:21.145Z,54.53
2018-05-12T08:41:21.031Z,52.98
2018-05-12T08:42:21.022Z,51.92
2018-05-12T08:43:21.008Z,51.63
2018-05-12T08:44:21.047Z,51.05
2018-05-12T08:45:20.989Z,51.92
2018-05-12T08:46:20.978Z,51.53
2018-05-12T08:47:20.963Z,50.09
2018-05-12T08:48:21.026Z,50.96
2018-05-12T08:49:20.989Z,51.53
2018-05-12T08:50:20.980Z,51.15
2018-05-12T08:51:20.958Z,49.22
2018-05-12T08:52:20.909Z,48.83
2018-05-12T08:53:20.940Z,45.45
2018-05-12T08:54:20.889Z,45.75
2018-05-12T08:55:20.966Z,47.29
2018-05-12T08:56:20.889Z,47.29
2018-05-12T08:57:20.862Z,46.23
2018-05-12T08:58:20.849Z,43.62
2018-05-12T08:59:20.847Z,44.87
2018-05-12T09:00:20.838Z,45.84
2018-05-12T09:01:20.819Z,46.15
2018-05-12T09:02:20.817Z,46.83
2018-05-12T09:03:20.819Z,47.22
2018-05-12T09:04:20.786Z,47.02
2018-05-12T09:05:20.797Z,46.64
2018-05-12T09:06:20.782Z,46.75
2018-05-12T09:07:20.786Z,47.33
2018-05-12T09:08:20.784Z,46.37
2018-05-12T09:09:20.743Z,46.17
2018-05-12T09:10:20.728Z,47.53
2018-05-12T09:11:20.728Z,46.68
2018-05-12T09:12:20.706Z,46.68
2018-05-12T09:13:20.776Z,44.46
2018-05-12T09:14:20.695Z,41.94
2018-05-12T09:15:20.701Z,42.91
2018-05-12T09:16:20.670Z,43.98
2018-05-12T09:17:20.664Z,42.02
2018-05-12T09:18:20.691Z,41.63
2018-05-12T09:19:20.703Z,42.50
2018-05-12T09:20:20.659Z,43.47
2018-05-12T09:21:20.647Z,44.43
2018-05-12T09:22:20.635Z,45.11
2018-05-12T09:23:20.607Z,43.49
2018-05-12T09:24:20.647Z,43.78
2018-05-12T09:25:20.626Z,44.36
2018-05-12T09:26:20.588Z,42.04
2018-05-12T09:27:20.577Z,42.02
2018-05-12T09:28:20.582Z,44.07
2018-05-12T09:29:20.672Z,41.66
2018-05-12T09:30:20.549Z,41.85
2018-05-12T09:31:20.534Z,42.02
2018-05-12T09:32:20.517Z,41.75
2018-05-12T09:33:20.509Z,42.04
2018-05-12T09:34:20.502Z,41.66
2018-05-12T09:35:20.494Z,41.08
2018-05-12T09:36:20.483Z,40.78
2018-05-12T09:37:20.508Z,40.98
2018-05-12T09:38:20.466Z,41.56
2018-05-12T09:39:20.508Z,42.79
2018-05-12T09:40:20.480Z,42.89
2018-05-12T09:41:20.452Z,44.15
2018-05-12T09:42:20.499Z,42.52
2018-05-12T09:43:20.425Z,42.04
2018-05-12T09:44:20.426Z,42.72
2018-05-12T09:45:20.400Z,40.88
2018-05-12T09:46:20.401Z,40.30
2018-05-12T09:47:20.399Z,40.69
2018-05-12T09:48:20.396Z,41.46
2018-05-12T09:49:20.372Z,42.25
2018-05-12T09:50:20.380Z,42.04
2018-05-12T09:51:20.373Z,42.04
2018-05-12T09:52:20.444Z,41.85
2018-05-12T09:53:20.329Z,43.78
2018-05-12T09:54:20.304Z,41.94
2018-05-12T09:55:20.309Z,42.62
2018-05-12T09:56:20.293Z,43.30
2018-05-12T09:57:20.289Z,43.30
2018-05-12T09:58:20.301Z,42.62
2018-05-12T09:59:20.262Z,42.45
2018-05-12T10:00:20.252Z,41.87
2018-05-12T10:01:20.247Z,40.78
2018-05-12T10:02:20.255Z,41.56
2018-05-12T10:03:20.246Z,42.43
2018-05-12T10:04:20.229Z,41.66
2018-05-12T10:05:20.220Z,40.88
2018-05-12T10:06:20.203Z,40.59
2018-05-12T10:07:20.188Z,40.88
2018-05-12T10:08:20.177Z,40.69
2018-05-12T10:09:20.199Z,42.14
2018-05-12T10:10:20.177Z,40.90
2018-05-12T10:11:20.178Z,40.71
2018-05-12T10:12:20.144Z,40.50
2018-05-12T10:13:20.151Z,41.67
2018-05-12T10:14:20.151Z,41.08
2018-05-12T10:15:20.123Z,41.94
2018-05-12T10:16:20.120Z,42.91
2018-05-12T10:17:20.097Z,43.23
2018-05-12T10:18:20.093Z,42.45
2018-05-12T10:19:20.137Z,42.65
2018-05-12T10:20:20.095Z,40.52
2018-05-12T10:21:20.072Z,40.03
2018-05-12T10:22:20.054Z,38.78
2018-05-12T10:23:20.085Z,40.13
2018-05-12T10:24:20.051Z,40.44
2018-05-12T10:25:20.028Z,40.73
2018-05-12T10:26:20.113Z,40.63
2018-05-12T10:27:20.080Z,39.84
2018-05-12T10:28:20.001Z,39.84
2018-05-12T10:29:20.022Z,40.03
2018-05-12T10:30:19.990Z,40.90
2018-05-12T10:31:20.002Z,40.81
2018-05-12T10:32:19.989Z,39.94
2018-05-12T10:33:19.984Z,40.71
2018-05-12T10:34:19.983Z,41.67
2018-05-12T10:35:19.936Z,41.48
2018-05-12T10:36:19.955Z,41.29
2018-05-12T10:37:19.919Z,42.08
2018-05-12T10:38:19.901Z,40.73
2018-05-12T10:39:19.896Z,40.63
2018-05-12T10:40:19.933Z,41.21
2018-05-12T10:41:19.895Z,41.11
2018-05-12T10:42:19.889Z,41.72
2018-05-12T10:43:19.877Z,41.52
2018-05-12T10:44:19.863Z,42.30
2018-05-12T10:45:19.854Z,41.14
2018-05-12T10:46:19.840Z,40.46
2018-05-12T10:47:19.827Z,39.80
2018-05-12T10:48:19.824Z,38.04
2018-05-12T10:49:19.810Z,38.13
2018-05-12T10:50:19.802Z,41.04
2018-05-12T10:51:19.790Z,41.04
2018-05-12T10:52:19.783Z,39.59
2018-05-12T10:53:19.782Z,40.86
2018-05-12T10:54:19.762Z,38.91
2018-05-12T10:55:19.762Z,39.11
2018-05-12T10:56:19.750Z,38.15
2018-05-12T10:57:19.739Z,39.03
2018-05-12T10:58:19.740Z,39.61
2018-05-12T10:59:19.730Z,37.07
2018-05-12T11:00:19.737Z,36.88
2018-05-12T11:01:19.703Z,37.82
2018-05-12T11:02:19.719Z,38.02
2018-05-12T11:03:19.701Z,38.41
2018-05-12T11:04:19.694Z,38.41
2018-05-12T11:05:19.668Z,37.63
2018-05-12T11:06:19.685Z,37.94
2018-05-12T11:07:19.654Z,37.55
2018-05-12T11:08:19.650Z,38.13
2018-05-12T11:09:19.667Z,39.49
2018-05-12T11:10:19.642Z,39.49
2018-05-12T11:11:19.645Z,37.85
2018-05-12T11:12:19.662Z,37.85
2018-05-12T11:13:19.624Z,36.98
2018-05-12T11:14:19.593Z,36.99
2018-05-12T11:15:19.591Z,36.30
2018-05-12T11:16:19.594Z,36.10
2018-05-12T11:17:19.588Z,36.30
2018-05-12T11:18:19.587Z,36.88
2018-05-12T11:19:19.589Z,36.88
2018-05-12T11:20:19.630Z,37.26
2018-05-12T11:21:19.559Z,37.82
2018-05-12T11:22:19.545Z,37.92
2018-05-12T11:23:19.532Z,37.17
2018-05-12T11:24:19.540Z,37.46
2018-05-12T11:25:19.524Z,36.98
2018-05-12T11:26:19.494Z,37.17
2018-05-12T11:27:19.481Z,37.65
2018-05-12T11:28:19.513Z,37.85
2018-05-12T11:29:19.469Z,37.26
2018-05-12T11:30:19.468Z,37.26
2018-05-12T11:31:19.454Z,38.13
2018-05-12T11:32:19.472Z,38.04
2018-05-12T11:33:19.431Z,36.98
2018-05-12T11:34:19.428Z,37.26
2018-05-12T11:35:19.434Z,36.78
2018-05-12T11:36:19.402Z,35.83
2018-05-12T11:37:19.394Z,35.73
2018-05-12T11:38:19.384Z,34.86
2018-05-12T11:39:19.379Z,35.54
2018-05-12T11:40:19.366Z,36.51
2018-05-12T11:41:19.384Z,36.02
2018-05-12T11:42:19.386Z,35.35
2018-05-12T11:43:19.385Z,33.89
2018-05-12T11:44:19.361Z,34.28
2018-05-12T11:45:19.382Z,33.89
2018-05-12T11:46:19.318Z,34.28
2018-05-12T11:47:19.312Z,34.77
2018-05-12T11:48:19.310Z,35.35
2018-05-12T11:49:19.316Z,34.47
2018-05-12T11:50:19.294Z,36.32
2018-05-12T11:51:19.313Z,34.88
2018-05-12T11:52:19.274Z,34.57
2018-05-12T11:53:19.262Z,34.88
2018-05-12T11:54:19.268Z,35.85
2018-05-12T11:55:19.256Z,35.17
2018-05-12T11:56:19.240Z,34.30
2018-05-12T11:57:19.225Z,33.62
2018-05-12T11:58:19.335Z,33.14
2018-05-12T11:59:19.213Z,33.81
2018-05-12T12:00:19.194Z,32.65
2018-05-12T12:01:19.221Z,33.52
2018-05-12T12:02:19.205Z,32.56
2018-05-12T12:03:19.218Z,33.81
2018-05-12T12:04:19.170Z,34.59
2018-05-12T12:05:19.151Z,33.04
2018-05-12T12:06:19.179Z,33.12
2018-05-12T12:07:19.285Z,34.38
2018-05-12T12:08:19.137Z,34.97
2018-05-12T12:09:19.120Z,35.83
2018-05-12T12:10:19.151Z,36.24
2018-05-12T12:11:19.106Z,35.85
2018-05-12T12:12:19.097Z,34.88
2018-05-12T12:13:19.146Z,34.97
2018-05-12T12:14:19.085Z,34.31
2018-05-12T12:15:19.080Z,34.31
2018-05-12T12:16:19.068Z,34.51
2018-05-12T12:17:19.079Z,34.41
2018-05-12T12:18:19.070Z,34.99
2018-05-12T12:19:19.032Z,34.81
2018-05-12T12:20:19.045Z,34.81
2018-05-12T12:21:19.035Z,34.43
2018-05-12T12:22:19.013Z,33.36
2018-05-12T12:23:19.016Z,33.94
2018-05-12T12:24:19.000Z,32.89
2018-05-12T12:25:18.994Z,34.06
2018-05-12T12:26:19.026Z,34.06
2018-05-12T12:27:18.977Z,34.93
2018-05-12T12:28:18.988Z,34.54
2018-05-12T12:29:18.971Z,35.22
2018-05-12T12:30:18.957Z,33.18
2018-05-12T12:31:18.950Z,34.25
2018-05-12T12:32:18.948Z,33.38
2018-05-12T12:33:18.941Z,32.29
2018-05-12T12:34:18.969Z,33.94
2018-05-12T12:35:18.938Z,35.21
2018-05-12T12:36:18.916Z,34.35
2018-05-12T12:37:18.905Z,32.79
2018-05-12T12:38:18.891Z,33.29
2018-05-12T12:39:18.884Z,33.11
2018-05-12T12:40:18.877Z,32.62
2018-05-12T12:41:18.879Z,31.05
2018-05-12T12:42:18.852Z,33.18
2018-05-12T12:43:18.856Z,34.64
2018-05-12T12:44:18.858Z,33.84
2018-05-12T12:45:18.832Z,35.01
2018-05-12T12:46:18.830Z,34.83
2018-05-12T12:47:18.828Z,34.16
2018-05-12T12:48:18.822Z,33.59
2018-05-12T12:49:18.806Z,31.35
2018-05-12T12:50:18.801Z,32.32
2018-05-12T12:51:18.795Z,33.78
2018-05-12T12:52:18.789Z,31.47